sensor_id;sensor_type;location;lat;lon;timestamp;temperature;humidity
51765;DHT22;37835;53.256;6.456;2023-07-13T00:02:15;16.80;99.90
51765;DHT22;37835;53.256;6.456;2023-07-13T00:04:41;16.80;99.90
51765;DHT22;37835;53.256;6.456;2023-07-13T00:07:08;16.70;99.90
51765;DHT22;37835;53.256;6.456;2023-07-13T00:09:34;16.70;99.90
51765;DHT22;37835;53.256;6.456;2023-07-13T00:12:00;16.70;99.90
51765;DHT22;37835;53.256;6.456;2023-07-13T00:14:27;16.70;99.90
51765;DHT22;37835;53.256;6.456;2023-07-13T00:16:54;16.70;99.90
51765;DHT22;37835;53.256;6.456;2023-07-13T00:19:20;16.70;99.90
51765;DHT22;37835;53.256;6.456;2023-07-13T00:21:47;16.70;99.90
51765;DHT22;37835;53.256;6.456;2023-07-13T00:24:15;16.60;99.90
51765;DHT22;37835;53.256;6.456;2023-07-13T00:26:42;16.60;99.90
51765;DHT22;37835;53.256;6.456;2023-07-13T00:29:11;16.60;99.90
51765;DHT22;37835;53.256;6.456;2023-07-13T00:31:37;16.60;99.90
51765;DHT22;37835;53.256;6.456;2023-07-13T00:34:03;16.60;99.90
51765;DHT22;37835;53.256;6.456;2023-07-13T00:36:30;16.60;99.90
51765;DHT22;37835;53.256;6.456;2023-07-13T00:38:56;16.60;99.90
51765;DHT22;37835;53.256;6.456;2023-07-13T00:41:22;16.60;99.90
51765;DHT22;37835;53.256;6.456;2023-07-13T00:43:48;16.60;99.90
51765;DHT22;37835;53.256;6.456;2023-07-13T00:46:26;16.60;99.90
51765;DHT22;37835;53.256;6.456;2023-07-13T00:48:54;16.60;99.90
51765;DHT22;37835;53.256;6.456;2023-07-13T00:51:25;16.60;99.90
51765;DHT22;37835;53.256;6.456;2023-07-13T00:53:53;16.60;99.90
51765;DHT22;37835;53.256;6.456;2023-07-13T00:56:19;16.60;99.90
51765;DHT22;37835;53.256;6.456;2023-07-13T00:58:45;16.60;99.90
51765;DHT22;37835;53.256;6.456;2023-07-13T01:01:11;16.50;99.90
51765;DHT22;37835;53.256;6.456;2023-07-13T01:03:38;16.50;99.90
51765;DHT22;37835;53.256;6.456;2023-07-13T01:06:06;16.50;99.90
51765;DHT22;37835;53.256;6.456;2023-07-13T01:08:32;16.50;99.90
51765;DHT22;37835;53.256;6.456;2023-07-13T01:10:59;16.50;99.90
51765;DHT22;37835;53.256;6.456;2023-07-13T01:13:25;16.50;99.90
51765;DHT22;37835;53.256;6.456;2023-07-13T01:15:52;16.40;99.90
51765;DHT22;37835;53.256;6.456;2023-07-13T01:18:23;16.40;99.90
51765;DHT22;37835;53.256;6.456;2023-07-13T01:21:01;16.40;99.90
51765;DHT22;37835;53.256;6.456;2023-07-13T01:23:29;16.40;99.90
51765;DHT22;37835;53.256;6.456;2023-07-13T01:25:55;16.40;99.90
51765;DHT22;37835;53.256;6.456;2023-07-13T01:28:22;16.40;99.90
51765;DHT22;37835;53.256;6.456;2023-07-13T01:30:49;16.40;99.90
51765;DHT22;37835;53.256;6.456;2023-07-13T01:33:17;16.40;99.90
51765;DHT22;37835;53.256;6.456;2023-07-13T01:35:44;16.40;99.90
51765;DHT22;37835;53.256;6.456;2023-07-13T01:38:12;16.40;99.90
51765;DHT22;37835;53.256;6.456;2023-07-13T01:40:39;16.40;99.90
51765;DHT22;37835;53.256;6.456;2023-07-13T01:43:05;16.40;99.90
51765;DHT22;37835;53.256;6.456;2023-07-13T01:45:31;16.40;99.90
51765;DHT22;37835;53.256;6.456;2023-07-13T01:47:57;16.40;99.90
51765;DHT22;37835;53.256;6.456;2023-07-13T01:50:24;16.40;99.90
51765;DHT22;37835;53.256;6.456;2023-07-13T01:52:50;16.40;99.90
51765;DHT22;37835;53.256;6.456;2023-07-13T01:55:16;16.40;99.90
51765;DHT22;37835;53.256;6.456;2023-07-13T01:57:41;16.30;99.90
51765;DHT22;37835;53.256;6.456;2023-07-13T02:00:10;16.30;99.90
51765;DHT22;37835;53.256;6.456;2023-07-13T02:02:35;16.20;99.90
51765;DHT22;37835;53.256;6.456;2023-07-13T02:05:01;16.20;99.90
51765;DHT22;37835;53.256;6.456;2023-07-13T02:07:27;16.30;99.90
51765;DHT22;37835;53.256;6.456;2023-07-13T02:09:53;16.20;99.90
51765;DHT22;37835;53.256;6.456;2023-07-13T02:12:19;16.30;99.90
51765;DHT22;37835;53.256;6.456;2023-07-13T02:14:45;16.30;99.90
51765;DHT22;37835;53.256;6.456;2023-07-13T02:17:11;16.30;99.90
51765;DHT22;37835;53.256;6.456;2023-07-13T02:19:37;16.20;99.90
51765;DHT22;37835;53.256;6.456;2023-07-13T02:22:02;16.20;99.90
51765;DHT22;37835;53.256;6.456;2023-07-13T02:24:28;16.20;99.90
51765;DHT22;37835;53.256;6.456;2023-07-13T02:26:54;16.20;99.90
51765;DHT22;37835;53.256;6.456;2023-07-13T02:29:20;16.20;99.90
51765;DHT22;37835;53.256;6.456;2023-07-13T02:31:45;16.20;99.90
51765;DHT22;37835;53.256;6.456;2023-07-13T02:34:11;16.20;99.90
51765;DHT22;37835;53.256;6.456;2023-07-13T02:36:37;16.10;99.90
51765;DHT22;37835;53.256;6.456;2023-07-13T02:39:05;16.10;99.90
51765;DHT22;37835;53.256;6.456;2023-07-13T02:41:31;16.10;99.90
51765;DHT22;37835;53.256;6.456;2023-07-13T02:43:58;16.10;99.90
51765;DHT22;37835;53.256;6.456;2023-07-13T02:46:33;16.00;99.90
51765;DHT22;37835;53.256;6.456;2023-07-13T02:49:00;16.00;99.90
51765;DHT22;37835;53.256;6.456;2023-07-13T02:51:26;16.00;99.90
51765;DHT22;37835;53.256;6.456;2023-07-13T02:53:52;16.00;99.90
51765;DHT22;37835;53.256;6.456;2023-07-13T02:56:22;16.00;99.90
51765;DHT22;37835;53.256;6.456;2023-07-13T02:58:48;16.00;99.90
51765;DHT22;37835;53.256;6.456;2023-07-13T03:01:14;16.00;99.90
51765;DHT22;37835;53.256;6.456;2023-07-13T03:03:44;16.00;99.90
51765;DHT22;37835;53.256;6.456;2023-07-13T03:06:11;16.00;99.90
51765;DHT22;37835;53.256;6.456;2023-07-13T03:08:37;16.00;99.90
51765;DHT22;37835;53.256;6.456;2023-07-13T03:11:09;16.00;99.90
51765;DHT22;37835;53.256;6.456;2023-07-13T03:13:37;15.90;99.90
51765;DHT22;37835;53.256;6.456;2023-07-13T03:16:03;15.90;99.90
51765;DHT22;37835;53.256;6.456;2023-07-13T03:18:29;15.90;99.90
51765;DHT22;37835;53.256;6.456;2023-07-13T03:20:55;15.80;99.90
51765;DHT22;37835;53.256;6.456;2023-07-13T03:23:22;15.80;99.90
51765;DHT22;37835;53.256;6.456;2023-07-13T03:25:48;15.80;99.90
51765;DHT22;37835;53.256;6.456;2023-07-13T03:28:15;15.70;99.90
51765;DHT22;37835;53.256;6.456;2023-07-13T03:30:41;15.70;99.90
51765;DHT22;37835;53.256;6.456;2023-07-13T03:33:07;15.70;99.90
51765;DHT22;37835;53.256;6.456;2023-07-13T03:35:34;15.70;99.90
51765;DHT22;37835;53.256;6.456;2023-07-13T03:38:00;15.70;99.90
51765;DHT22;37835;53.256;6.456;2023-07-13T03:40:28;15.70;99.90
51765;DHT22;37835;53.256;6.456;2023-07-13T03:42:53;15.70;99.90
51765;DHT22;37835;53.256;6.456;2023-07-13T03:45:19;15.70;99.90
51765;DHT22;37835;53.256;6.456;2023-07-13T03:47:45;15.70;99.90
51765;DHT22;37835;53.256;6.456;2023-07-13T03:50:11;15.80;99.90
51765;DHT22;37835;53.256;6.456;2023-07-13T03:52:37;15.80;99.90
51765;DHT22;37835;53.256;6.456;2023-07-13T03:55:03;15.80;99.90
51765;DHT22;37835;53.256;6.456;2023-07-13T03:57:28;15.80;99.90
51765;DHT22;37835;53.256;6.456;2023-07-13T03:59:54;15.80;99.90
51765;DHT22;37835;53.256;6.456;2023-07-13T04:02:20;15.80;99.90
51765;DHT22;37835;53.256;6.456;2023-07-13T04:04:46;15.80;99.90
51765;DHT22;37835;53.256;6.456;2023-07-13T04:07:12;15.80;99.90
51765;DHT22;37835;53.256;6.456;2023-07-13T04:09:37;15.80;99.90
51765;DHT22;37835;53.256;6.456;2023-07-13T04:12:04;15.80;99.90
51765;DHT22;37835;53.256;6.456;2023-07-13T04:14:30;15.80;99.90
51765;DHT22;37835;53.256;6.456;2023-07-13T04:16:56;15.80;99.90
51765;DHT22;37835;53.256;6.456;2023-07-13T04:19:22;15.80;99.90
51765;DHT22;37835;53.256;6.456;2023-07-13T04:21:47;15.80;99.90
51765;DHT22;37835;53.256;6.456;2023-07-13T04:24:13;15.90;99.90
51765;DHT22;37835;53.256;6.456;2023-07-13T04:26:39;15.80;99.90
51765;DHT22;37835;53.256;6.456;2023-07-13T04:29:06;16.00;99.90
51765;DHT22;37835;53.256;6.456;2023-07-13T04:31:32;15.90;99.90
51765;DHT22;37835;53.256;6.456;2023-07-13T04:33:58;15.90;99.90
51765;DHT22;37835;53.256;6.456;2023-07-13T04:36:24;15.90;99.90
51765;DHT22;37835;53.256;6.456;2023-07-13T04:38:53;16.00;99.90
51765;DHT22;37835;53.256;6.456;2023-07-13T04:41:20;16.00;99.90
51765;DHT22;37835;53.256;6.456;2023-07-13T04:43:45;16.00;99.90
51765;DHT22;37835;53.256;6.456;2023-07-13T04:46:17;16.10;99.90
51765;DHT22;37835;53.256;6.456;2023-07-13T04:48:44;16.10;99.90
51765;DHT22;37835;53.256;6.456;2023-07-13T04:51:09;16.20;99.90
51765;DHT22;37835;53.256;6.456;2023-07-13T04:53:36;16.30;99.90
51765;DHT22;37835;53.256;6.456;2023-07-13T04:56:02;16.30;99.90
51765;DHT22;37835;53.256;6.456;2023-07-13T04:58:28;16.30;99.90
51765;DHT22;37835;53.256;6.456;2023-07-13T05:01:00;16.40;99.90
51765;DHT22;37835;53.256;6.456;2023-07-13T05:03:26;16.40;99.90
51765;DHT22;37835;53.256;6.456;2023-07-13T05:06:00;16.40;99.90
51765;DHT22;37835;53.256;6.456;2023-07-13T05:08:26;16.60;99.90
51765;DHT22;37835;53.256;6.456;2023-07-13T05:10:53;16.60;99.90
51765;DHT22;37835;53.256;6.456;2023-07-13T05:13:19;16.70;99.90
51765;DHT22;37835;53.256;6.456;2023-07-13T05:15:45;16.70;99.90
51765;DHT22;37835;53.256;6.456;2023-07-13T05:18:11;16.70;99.90
51765;DHT22;37835;53.256;6.456;2023-07-13T05:20:37;16.80;99.90
51765;DHT22;37835;53.256;6.456;2023-07-13T05:23:02;16.90;99.90
51765;DHT22;37835;53.256;6.456;2023-07-13T05:25:28;16.80;99.90
51765;DHT22;37835;53.256;6.456;2023-07-13T05:27:54;16.90;99.90
51765;DHT22;37835;53.256;6.456;2023-07-13T05:30:19;17.00;99.90
51765;DHT22;37835;53.256;6.456;2023-07-13T05:32:45;17.00;99.90
51765;DHT22;37835;53.256;6.456;2023-07-13T05:35:11;17.10;99.90
51765;DHT22;37835;53.256;6.456;2023-07-13T05:37:37;17.10;99.90
51765;DHT22;37835;53.256;6.456;2023-07-13T05:40:03;17.20;99.90
51765;DHT22;37835;53.256;6.456;2023-07-13T05:42:29;17.20;99.90
51765;DHT22;37835;53.256;6.456;2023-07-13T05:44:57;17.30;99.90
51765;DHT22;37835;53.256;6.456;2023-07-13T05:47:22;17.30;99.90
51765;DHT22;37835;53.256;6.456;2023-07-13T05:49:48;17.40;99.90
51765;DHT22;37835;53.256;6.456;2023-07-13T05:52:14;17.50;99.90
51765;DHT22;37835;53.256;6.456;2023-07-13T05:54:39;17.50;99.90
51765;DHT22;37835;53.256;6.456;2023-07-13T05:57:05;17.60;99.90
51765;DHT22;37835;53.256;6.456;2023-07-13T05:59:31;17.60;99.90
51765;DHT22;37835;53.256;6.456;2023-07-13T06:01:57;17.60;99.90
51765;DHT22;37835;53.256;6.456;2023-07-13T06:04:22;17.70;99.90
51765;DHT22;37835;53.256;6.456;2023-07-13T06:06:48;17.80;99.90
51765;DHT22;37835;53.256;6.456;2023-07-13T06:09:14;17.80;99.90
51765;DHT22;37835;53.256;6.456;2023-07-13T06:11:39;17.90;99.90
51765;DHT22;37835;53.256;6.456;2023-07-13T06:14:05;17.90;99.90
51765;DHT22;37835;53.256;6.456;2023-07-13T06:16:31;17.90;99.90
51765;DHT22;37835;53.256;6.456;2023-07-13T06:18:57;18.00;99.90
51765;DHT22;37835;53.256;6.456;2023-07-13T06:21:23;18.00;99.90
51765;DHT22;37835;53.256;6.456;2023-07-13T06:23:50;18.10;99.90
51765;DHT22;37835;53.256;6.456;2023-07-13T06:26:17;18.10;99.90
51765;DHT22;37835;53.256;6.456;2023-07-13T06:28:43;18.20;99.90
51765;DHT22;37835;53.256;6.456;2023-07-13T06:31:11;18.20;99.90
51765;DHT22;37835;53.256;6.456;2023-07-13T06:33:38;18.30;99.90
51765;DHT22;37835;53.256;6.456;2023-07-13T06:36:05;18.30;99.90
51765;DHT22;37835;53.256;6.456;2023-07-13T06:38:31;18.40;99.90
51765;DHT22;37835;53.256;6.456;2023-07-13T06:40:57;18.50;99.90
51765;DHT22;37835;53.256;6.456;2023-07-13T06:43:23;18.50;99.90
51765;DHT22;37835;53.256;6.456;2023-07-13T06:45:50;18.50;99.90
51765;DHT22;37835;53.256;6.456;2023-07-13T06:48:17;18.60;99.90
51765;DHT22;37835;53.256;6.456;2023-07-13T06:50:43;18.70;99.90
51765;DHT22;37835;53.256;6.456;2023-07-13T06:53:11;18.70;99.90
51765;DHT22;37835;53.256;6.456;2023-07-13T06:55:37;18.80;99.90
51765;DHT22;37835;53.256;6.456;2023-07-13T06:58:03;18.90;99.90
51765;DHT22;37835;53.256;6.456;2023-07-13T07:00:28;19.00;99.90
51765;DHT22;37835;53.256;6.456;2023-07-13T07:02:54;19.00;99.90
51765;DHT22;37835;53.256;6.456;2023-07-13T07:05:20;19.10;99.90
51765;DHT22;37835;53.256;6.456;2023-07-13T07:07:51;19.10;99.90
51765;DHT22;37835;53.256;6.456;2023-07-13T07:10:18;19.10;99.90
51765;DHT22;37835;53.256;6.456;2023-07-13T07:12:45;19.20;99.90
51765;DHT22;37835;53.256;6.456;2023-07-13T07:15:10;19.20;99.90
51765;DHT22;37835;53.256;6.456;2023-07-13T07:17:36;19.20;99.90
51765;DHT22;37835;53.256;6.456;2023-07-13T07:20:02;19.20;99.90
51765;DHT22;37835;53.256;6.456;2023-07-13T07:22:29;19.20;99.90
51765;DHT22;37835;53.256;6.456;2023-07-13T07:24:58;19.10;99.90
51765;DHT22;37835;53.256;6.456;2023-07-13T07:27:24;19.10;99.90
51765;DHT22;37835;53.256;6.456;2023-07-13T07:29:50;19.10;99.90
51765;DHT22;37835;53.256;6.456;2023-07-13T07:32:16;19.30;99.90
51765;DHT22;37835;53.256;6.456;2023-07-13T07:34:42;19.20;99.90
51765;DHT22;37835;53.256;6.456;2023-07-13T07:37:12;19.20;99.90
51765;DHT22;37835;53.256;6.456;2023-07-13T07:39:38;19.20;99.90
51765;DHT22;37835;53.256;6.456;2023-07-13T07:42:04;19.20;99.90
51765;DHT22;37835;53.256;6.456;2023-07-13T07:44:33;19.10;99.90
51765;DHT22;37835;53.256;6.456;2023-07-13T07:46:59;19.20;99.90
51765;DHT22;37835;53.256;6.456;2023-07-13T07:49:25;19.30;99.90
51765;DHT22;37835;53.256;6.456;2023-07-13T07:51:51;19.40;99.90
51765;DHT22;37835;53.256;6.456;2023-07-13T07:54:17;19.40;99.90
51765;DHT22;37835;53.256;6.456;2023-07-13T07:56:43;19.40;99.90
51765;DHT22;37835;53.256;6.456;2023-07-13T07:59:09;19.40;99.90
51765;DHT22;37835;53.256;6.456;2023-07-13T08:01:35;19.30;99.90
51765;DHT22;37835;53.256;6.456;2023-07-13T08:04:00;19.30;99.90
51765;DHT22;37835;53.256;6.456;2023-07-13T08:06:26;19.10;99.90
51765;DHT22;37835;53.256;6.456;2023-07-13T08:08:52;19.00;99.90
51765;DHT22;37835;53.256;6.456;2023-07-13T08:11:18;18.90;99.90
51765;DHT22;37835;53.256;6.456;2023-07-13T08:13:43;18.80;99.90
51765;DHT22;37835;53.256;6.456;2023-07-13T08:16:09;18.90;99.90
51765;DHT22;37835;53.256;6.456;2023-07-13T08:18:35;18.90;99.90
51765;DHT22;37835;53.256;6.456;2023-07-13T08:21:05;18.90;99.90
51765;DHT22;37835;53.256;6.456;2023-07-13T08:23:31;18.90;99.90
51765;DHT22;37835;53.256;6.456;2023-07-13T08:25:57;18.90;99.90
51765;DHT22;37835;53.256;6.456;2023-07-13T08:28:24;18.80;99.90
51765;DHT22;37835;53.256;6.456;2023-07-13T08:30:50;18.90;99.90
51765;DHT22;37835;53.256;6.456;2023-07-13T08:33:20;18.80;99.90
51765;DHT22;37835;53.256;6.456;2023-07-13T08:35:50;18.70;99.90
51765;DHT22;37835;53.256;6.456;2023-07-13T08:38:16;18.70;99.90
51765;DHT22;37835;53.256;6.456;2023-07-13T08:40:43;18.60;99.90
51765;DHT22;37835;53.256;6.456;2023-07-13T08:43:15;18.60;99.90
51765;DHT22;37835;53.256;6.456;2023-07-13T08:48:35;18.50;99.90
51765;DHT22;37835;53.256;6.456;2023-07-13T08:51:28;18.50;99.90
51765;DHT22;37835;53.256;6.456;2023-07-13T08:54:03;18.50;99.90
51765;DHT22;37835;53.256;6.456;2023-07-13T08:56:32;18.50;99.90
51765;DHT22;37835;53.256;6.456;2023-07-13T08:59:15;18.60;99.90
51765;DHT22;37835;53.256;6.456;2023-07-13T09:04:19;18.70;99.90
51765;DHT22;37835;53.256;6.456;2023-07-13T09:12:10;18.90;99.90
51765;DHT22;37835;53.256;6.456;2023-07-13T09:14:50;19.00;99.90
51765;DHT22;37835;53.256;6.456;2023-07-13T09:17:25;19.10;99.90
51765;DHT22;37835;53.256;6.456;2023-07-13T09:20:12;19.30;99.90
51765;DHT22;37835;53.256;6.456;2023-07-13T09:22:41;19.60;99.90
51765;DHT22;37835;53.256;6.456;2023-07-13T09:25:29;19.80;99.90
51765;DHT22;37835;53.256;6.456;2023-07-13T09:28:00;20.00;99.90
51765;DHT22;37835;53.256;6.456;2023-07-13T09:33:04;20.30;99.90
51765;DHT22;37835;53.256;6.456;2023-07-13T09:35:31;20.50;99.90
51765;DHT22;37835;53.256;6.456;2023-07-13T09:37:58;20.70;99.90
51765;DHT22;37835;53.256;6.456;2023-07-13T09:43:20;21.00;99.90
51765;DHT22;37835;53.256;6.456;2023-07-13T09:45:47;21.10;99.90
51765;DHT22;37835;53.256;6.456;2023-07-13T09:48:15;21.10;99.90
51765;DHT22;37835;53.256;6.456;2023-07-13T09:50:42;21.00;99.90
51765;DHT22;37835;53.256;6.456;2023-07-13T09:53:18;21.00;99.90
51765;DHT22;37835;53.256;6.456;2023-07-13T09:55:48;20.90;99.90
51765;DHT22;37835;53.256;6.456;2023-07-13T09:58:18;20.80;99.90
51765;DHT22;37835;53.256;6.456;2023-07-13T10:00:58;20.80;99.90
51765;DHT22;37835;53.256;6.456;2023-07-13T10:03:33;20.90;99.90
51765;DHT22;37835;53.256;6.456;2023-07-13T10:06:17;21.10;99.90
51765;DHT22;37835;53.256;6.456;2023-07-13T10:08:47;21.10;99.90
51765;DHT22;37835;53.256;6.456;2023-07-13T10:11:22;21.10;99.90
51765;DHT22;37835;53.256;6.456;2023-07-13T10:14:01;21.00;99.90
51765;DHT22;37835;53.256;6.456;2023-07-13T10:16:34;20.90;99.90
51765;DHT22;37835;53.256;6.456;2023-07-13T10:19:08;20.90;99.90
51765;DHT22;37835;53.256;6.456;2023-07-13T10:21:42;21.00;99.90
51765;DHT22;37835;53.256;6.456;2023-07-13T10:24:25;21.00;99.90
51765;DHT22;37835;53.256;6.456;2023-07-13T10:27:03;21.00;99.90
51765;DHT22;37835;53.256;6.456;2023-07-13T10:29:36;21.00;99.90
51765;DHT22;37835;53.256;6.456;2023-07-13T10:32:08;21.00;99.90
51765;DHT22;37835;53.256;6.456;2023-07-13T10:34:35;21.10;99.90
51765;DHT22;37835;53.256;6.456;2023-07-13T10:37:01;21.10;99.90
51765;DHT22;37835;53.256;6.456;2023-07-13T10:39:28;21.10;99.90
51765;DHT22;37835;53.256;6.456;2023-07-13T10:42:01;21.00;99.90
51765;DHT22;37835;53.256;6.456;2023-07-13T10:44:30;20.90;99.90
51765;DHT22;37835;53.256;6.456;2023-07-13T10:47:07;20.90;99.90
51765;DHT22;37835;53.256;6.456;2023-07-13T10:49:34;20.90;99.90
51765;DHT22;37835;53.256;6.456;2023-07-13T10:52:02;20.90;99.90
51765;DHT22;37835;53.256;6.456;2023-07-13T10:54:32;21.00;99.90
51765;DHT22;37835;53.256;6.456;2023-07-13T10:57:21;21.10;99.90
51765;DHT22;37835;53.256;6.456;2023-07-13T11:02:29;21.10;99.90
51765;DHT22;37835;53.256;6.456;2023-07-13T11:04:56;21.10;99.90
51765;DHT22;37835;53.256;6.456;2023-07-13T11:10:00;21.10;99.90
51765;DHT22;37835;53.256;6.456;2023-07-13T11:12:50;21.10;99.90
51765;DHT22;37835;53.256;6.456;2023-07-13T11:15:31;21.20;99.90
51765;DHT22;37835;53.256;6.456;2023-07-13T11:18:03;21.30;99.90
51765;DHT22;37835;53.256;6.456;2023-07-13T11:20:36;21.50;99.90
51765;DHT22;37835;53.256;6.456;2023-07-13T11:23:26;21.60;99.90
51765;DHT22;37835;53.256;6.456;2023-07-13T11:25:53;21.70;99.90
51765;DHT22;37835;53.256;6.456;2023-07-13T11:28:23;21.70;99.90
51765;DHT22;37835;53.256;6.456;2023-07-13T11:33:25;21.80;99.90
51765;DHT22;37835;53.256;6.456;2023-07-13T11:38:47;21.70;99.90
51765;DHT22;37835;53.256;6.456;2023-07-13T11:41:25;21.70;99.90
51765;DHT22;37835;53.256;6.456;2023-07-13T11:44:06;21.60;99.90
51765;DHT22;37835;53.256;6.456;2023-07-13T11:46:33;21.70;99.90
51765;DHT22;37835;53.256;6.456;2023-07-13T11:48:58;21.70;99.90
51765;DHT22;37835;53.256;6.456;2023-07-13T11:51:35;21.70;99.90
51765;DHT22;37835;53.256;6.456;2023-07-13T11:54:05;21.90;99.90
51765;DHT22;37835;53.256;6.456;2023-07-13T11:56:33;22.00;99.90
51765;DHT22;37835;53.256;6.456;2023-07-13T11:59:06;22.10;99.90
51765;DHT22;37835;53.256;6.456;2023-07-13T12:01:44;22.20;99.90
51765;DHT22;37835;53.256;6.456;2023-07-13T12:04:32;22.30;99.90
51765;DHT22;37835;53.256;6.456;2023-07-13T12:07:06;22.20;99.90
51765;DHT22;37835;53.256;6.456;2023-07-13T12:09:33;22.30;99.90
51765;DHT22;37835;53.256;6.456;2023-07-13T12:12:01;22.40;99.90
51765;DHT22;37835;53.256;6.456;2023-07-13T12:14:28;22.60;99.90
51765;DHT22;37835;53.256;6.456;2023-07-13T12:16:54;22.70;99.90
51765;DHT22;37835;53.256;6.456;2023-07-13T12:19:23;22.80;99.90
51765;DHT22;37835;53.256;6.456;2023-07-13T12:21:52;22.80;99.90
51765;DHT22;37835;53.256;6.456;2023-07-13T12:24:20;22.80;99.90
51765;DHT22;37835;53.256;6.456;2023-07-13T12:27:00;22.80;99.90
51765;DHT22;37835;53.256;6.456;2023-07-13T12:29:27;22.70;99.90
51765;DHT22;37835;53.256;6.456;2023-07-13T12:31:52;22.60;99.90
51765;DHT22;37835;53.256;6.456;2023-07-13T12:34:20;22.40;99.90
51765;DHT22;37835;53.256;6.456;2023-07-13T12:39:24;21.80;99.90
51765;DHT22;37835;53.256;6.456;2023-07-13T12:41:52;21.40;99.90
51765;DHT22;37835;53.256;6.456;2023-07-13T12:44:26;21.10;99.90
51765;DHT22;37835;53.256;6.456;2023-07-13T12:47:03;20.90;99.90
51765;DHT22;37835;53.256;6.456;2023-07-13T12:49:32;20.80;99.90
51765;DHT22;37835;53.256;6.456;2023-07-13T12:52:01;20.90;99.90
51765;DHT22;37835;53.256;6.456;2023-07-13T12:54:29;21.00;99.90
51765;DHT22;37835;53.256;6.456;2023-07-13T12:56:57;21.10;99.90
51765;DHT22;37835;53.256;6.456;2023-07-13T12:59:25;21.30;99.90
51765;DHT22;37835;53.256;6.456;2023-07-13T13:01:53;21.40;99.90
51765;DHT22;37835;53.256;6.456;2023-07-13T13:04:20;21.40;99.90
51765;DHT22;37835;53.256;6.456;2023-07-13T13:06:48;21.40;99.90
51765;DHT22;37835;53.256;6.456;2023-07-13T13:09:17;21.40;99.90
51765;DHT22;37835;53.256;6.456;2023-07-13T13:11:44;21.40;99.90
51765;DHT22;37835;53.256;6.456;2023-07-13T13:14:09;21.30;99.90
51765;DHT22;37835;53.256;6.456;2023-07-13T13:16:47;21.10;99.90
51765;DHT22;37835;53.256;6.456;2023-07-13T13:19:19;20.80;99.90
51765;DHT22;37835;53.256;6.456;2023-07-13T13:21:46;20.50;99.90
51765;DHT22;37835;53.256;6.456;2023-07-13T13:24:18;20.20;99.90
51765;DHT22;37835;53.256;6.456;2023-07-13T13:26:46;20.10;99.90
51765;DHT22;37835;53.256;6.456;2023-07-13T13:29:13;19.90;99.90
51765;DHT22;37835;53.256;6.456;2023-07-13T13:31:39;19.90;99.90
51765;DHT22;37835;53.256;6.456;2023-07-13T13:34:09;20.00;99.90
51765;DHT22;37835;53.256;6.456;2023-07-13T13:36:35;20.00;99.90
51765;DHT22;37835;53.256;6.456;2023-07-13T13:39:01;20.10;99.90
51765;DHT22;37835;53.256;6.456;2023-07-13T13:41:27;20.30;99.90
51765;DHT22;37835;53.256;6.456;2023-07-13T13:43:53;20.40;99.90
51765;DHT22;37835;53.256;6.456;2023-07-13T13:46:22;20.50;99.90
51765;DHT22;37835;53.256;6.456;2023-07-13T13:48:50;20.50;99.90
51765;DHT22;37835;53.256;6.456;2023-07-13T13:51:18;20.60;99.90
51765;DHT22;37835;53.256;6.456;2023-07-13T13:53:46;20.70;99.90
51765;DHT22;37835;53.256;6.456;2023-07-13T13:56:12;20.70;99.90
51765;DHT22;37835;53.256;6.456;2023-07-13T13:58:39;20.70;99.90
51765;DHT22;37835;53.256;6.456;2023-07-13T14:01:10;20.70;99.90
51765;DHT22;37835;53.256;6.456;2023-07-13T14:03:37;20.80;99.90
51765;DHT22;37835;53.256;6.456;2023-07-13T14:06:03;20.80;99.90
51765;DHT22;37835;53.256;6.456;2023-07-13T14:08:29;20.90;99.90
51765;DHT22;37835;53.256;6.456;2023-07-13T14:10:56;21.00;99.90
51765;DHT22;37835;53.256;6.456;2023-07-13T14:13:30;21.10;99.90
51765;DHT22;37835;53.256;6.456;2023-07-13T14:15:58;21.20;99.90
51765;DHT22;37835;53.256;6.456;2023-07-13T14:18:24;21.30;99.90
51765;DHT22;37835;53.256;6.456;2023-07-13T14:20:50;21.50;99.90
51765;DHT22;37835;53.256;6.456;2023-07-13T14:23:17;21.40;99.90
51765;DHT22;37835;53.256;6.456;2023-07-13T14:25:44;21.60;99.90
51765;DHT22;37835;53.256;6.456;2023-07-13T14:28:24;21.70;99.90
51765;DHT22;37835;53.256;6.456;2023-07-13T14:30:51;21.90;99.90
51765;DHT22;37835;53.256;6.456;2023-07-13T14:33:17;22.00;99.90
51765;DHT22;37835;53.256;6.456;2023-07-13T14:35:43;22.10;99.90
51765;DHT22;37835;53.256;6.456;2023-07-13T14:38:17;22.00;99.90
51765;DHT22;37835;53.256;6.456;2023-07-13T14:40:43;22.00;99.90
51765;DHT22;37835;53.256;6.456;2023-07-13T14:43:10;22.00;99.90
51765;DHT22;37835;53.256;6.456;2023-07-13T14:45:43;22.00;99.90
51765;DHT22;37835;53.256;6.456;2023-07-13T14:48:29;22.00;99.90
51765;DHT22;37835;53.256;6.456;2023-07-13T14:50:58;21.90;99.90
51765;DHT22;37835;53.256;6.456;2023-07-13T14:53:27;21.90;99.90
51765;DHT22;37835;53.256;6.456;2023-07-13T14:55:53;21.80;99.90
51765;DHT22;37835;53.256;6.456;2023-07-13T14:58:19;21.70;99.90
51765;DHT22;37835;53.256;6.456;2023-07-13T15:00:45;21.70;99.90
51765;DHT22;37835;53.256;6.456;2023-07-13T15:03:23;21.60;99.90
51765;DHT22;37835;53.256;6.456;2023-07-13T15:05:49;21.60;99.90
51765;DHT22;37835;53.256;6.456;2023-07-13T15:08:15;21.70;99.90
51765;DHT22;37835;53.256;6.456;2023-07-13T15:10:41;21.80;99.90
51765;DHT22;37835;53.256;6.456;2023-07-13T15:13:21;21.90;99.90
51765;DHT22;37835;53.256;6.456;2023-07-13T15:15:51;22.10;99.90
51765;DHT22;37835;53.256;6.456;2023-07-13T15:18:21;22.10;99.90
51765;DHT22;37835;53.256;6.456;2023-07-13T15:20:48;22.20;99.90
51765;DHT22;37835;53.256;6.456;2023-07-13T15:23:16;22.20;99.90
51765;DHT22;37835;53.256;6.456;2023-07-13T15:25:43;22.10;99.90
51765;DHT22;37835;53.256;6.456;2023-07-13T15:28:11;22.00;99.90
51765;DHT22;37835;53.256;6.456;2023-07-13T15:30:44;21.90;99.90
51765;DHT22;37835;53.256;6.456;2023-07-13T15:33:20;21.90;99.90
51765;DHT22;37835;53.256;6.456;2023-07-13T15:35:48;21.90;99.90
51765;DHT22;37835;53.256;6.456;2023-07-13T15:38:22;22.00;99.90
51765;DHT22;37835;53.256;6.456;2023-07-13T15:40:50;22.00;99.90
51765;DHT22;37835;53.256;6.456;2023-07-13T15:43:17;22.00;99.90
51765;DHT22;37835;53.256;6.456;2023-07-13T15:45:44;22.00;99.90
51765;DHT22;37835;53.256;6.456;2023-07-13T15:48:19;22.00;99.90
51765;DHT22;37835;53.256;6.456;2023-07-13T15:50:48;22.20;99.90
51765;DHT22;37835;53.256;6.456;2023-07-13T15:53:19;22.30;99.90
51765;DHT22;37835;53.256;6.456;2023-07-13T15:55:46;22.30;99.90
51765;DHT22;37835;53.256;6.456;2023-07-13T15:58:12;22.30;99.90
51765;DHT22;37835;53.256;6.456;2023-07-13T16:00:40;22.30;99.90
51765;DHT22;37835;53.256;6.456;2023-07-13T16:03:07;22.40;99.90
51765;DHT22;37835;53.256;6.456;2023-07-13T16:05:33;22.40;99.90
51765;DHT22;37835;53.256;6.456;2023-07-13T16:07:59;22.50;99.90